Time;durP1;ratioP1;P1;durP2;ratioP2;P2;SDS_P1;SDS_P2;PMS_P1;PMS_P2;Temp;Humidity;BMP_temperature;BMP_pressure;BME280_temperature;BME280_humidity;BME280_pressure;Samples;Min_cycle;Max_cycle;Signal;HPM_P1;HPM_P2
2021/08/24 00:03:57;;;;;;;11.60;10.30;;;;;;;16.47;81.63;98627.41;233278;1201;22472;-73
2021/08/24 00:08:59;;;;;;;11.30;10.10;;;;;;;16.45;82.00;98636.45;233298;1201;22616;-74
2021/08/24 00:14:07;;;;;;;11.60;8.90;;;;;;;16.43;82.06;98635.69;233291;1201;24202;-74
2021/08/24 00:19:14;;;;;;;9.80;8.80;;;;;;;16.35;81.93;98634.18;233410;1201;24052;-74
2021/08/24 00:24:19;;;;;;;10.40;9.30;;;;;;;16.32;82.13;98637.30;233332;1202;24088;-73
2021/08/24 00:29:24;;;;;;;11.00;9.90;;;;;;;16.28;82.09;98642.64;233296;1201;24769;-74
2021/08/24 00:34:28;;;;;;;9.30;8.30;;;;;;;16.22;82.06;98643.13;233245;1201;24068;-74
2021/08/24 00:39:31;;;;;;;8.30;7.40;;;;;;;16.20;82.19;98638.20;233214;1201;24090;-73
2021/08/24 00:44:37;;;;;;;9.00;8.00;;;;;;;16.23;82.39;98631.03;233392;1201;24090;-72
2021/08/24 00:49:44;;;;;;;9.60;8.10;;;;;;;16.29;82.67;98632.19;233279;1201;26267;-73
2021/08/24 00:54:55;;;;;;;10.10;9.00;;;;;;;16.35;82.65;98634.64;233251;1193;24626;-73
2021/08/24 01:00:12;;;;;;;9.90;8.60;;;;;;;16.40;82.77;98633.67;233468;1201;23140;-74
2021/08/24 01:05:28;;;;;;;9.00;7.80;;;;;;;16.41;82.54;98634.17;233236;1196;22461;-72
2021/08/24 01:10:31;;;;;;;9.90;8.90;;;;;;;16.41;82.57;98631.69;233261;1201;24050;-75
2021/08/24 01:16:12;;;;;;;9.20;8.30;;;;;;;16.40;82.31;98632.52;233219;1201;25209;-73
2021/08/24 01:21:26;;;;;;;10.30;8.80;;;;;;;16.29;82.08;98634.42;233205;1192;24074;-74
2021/08/24 01:26:42;;;;;;;9.50;8.20;;;;;;;16.24;82.26;98631.38;233420;1196;22446;-73
2021/08/24 01:32:03;;;;;;;9.00;8.10;;;;;;;16.19;82.31;98632.84;233361;1201;24075;-73
2021/08/24 01:37:44;;;;;;;10.00;8.60;;;;;;;16.16;82.45;98638.05;233277;1195;24198;-72
2021/08/24 01:42:47;;;;;;;11.80;9.40;;;;;;;16.16;82.82;98647.23;233431;1201;24133;-74
2021/08/24 01:48:04;;;;;;;8.90;7.90;;;;;;;16.12;82.71;98655.24;233422;1196;24151;-74
2021/08/24 01:53:22;;;;;;;9.60;8.10;;;;;;;16.12;83.04;98654.16;233271;1202;24122;-72
2021/08/24 01:58:58;;;;;;;9.50;8.30;;;;;;;16.14;82.90;98661.03;233417;1202;25082;-74
2021/08/24 02:04:08;;;;;;;9.80;8.70;;;;;;;16.11;82.84;98655.27;233286;1202;24128;-73
2021/08/24 02:09:37;;;;;;;8.80;7.90;;;;;;;16.08;83.02;98643.76;233332;1201;22517;-74
2021/08/24 02:14:41;;;;;;;10.30;8.00;;;;;;;16.06;83.10;98639.96;233335;1196;22458;-72
2021/08/24 02:19:51;;;;;;;12.60;7.70;;;;;;;16.03;82.99;98640.55;233390;1202;22450;-74
2021/08/24 02:25:16;;;;;;;9.90;8.90;;;;;;;16.00;83.17;98637.66;233334;1193;24502;-75
2021/08/24 02:30:20;;;;;;;10.80;8.80;;;;;;;16.00;83.36;98639.67;233379;1208;22442;-74
2021/08/24 02:35:37;;;;;;;9.80;8.30;;;;;;;16.03;83.72;98649.35;233222;1202;22445;-73
2021/08/24 02:41:10;;;;;;;9.50;8.60;;;;;;;16.14;84.08;98650.99;233431;1201;22486;-74
2021/08/24 02:46:41;;;;;;;11.30;9.60;;;;;;;16.24;84.12;98648.14;233417;1202;24057;-74
2021/08/24 02:51:46;;;;;;;10.60;8.30;;;;;;;16.25;83.86;98645.39;233220;1202;25752;-74
2021/08/24 02:57:04;;;;;;;11.10;8.70;;;;;;;16.23;83.67;98639.83;233439;1193;25178;-75
2021/08/24 03:02:09;;;;;;;11.30;8.60;;;;;;;16.19;83.40;98635.60;233320;1201;22759;-74
2021/08/24 03:07:25;;;;;;;20.40;12.60;;;;;;;16.18;83.56;98640.10;233267;1202;22446;-74
2021/08/24 03:12:57;;;;;;;9.80;8.40;;;;;;;16.17;83.71;98634.59;233330;1202;22455;-74
2021/08/24 03:18:40;;;;;;;10.30;8.70;;;;;;;16.15;83.72;98632.73;233541;1201;24038;-74
2021/08/24 03:23:51;;;;;;;9.60;7.70;;;;;;;16.12;83.62;98630.41;233302;1201;22591;-74
2021/08/24 03:28:54;;;;;;;10.10;9.10;;;;;;;16.13;83.71;98629.18;233441;1202;22524;-74
2021/08/24 03:34:10;;;;;;;10.90;9.60;;;;;;;16.16;84.00;98630.29;233188;1202;24070;-74
2021/08/24 03:39:29;;;;;;;8.90;7.70;;;;;;;16.17;83.95;98632.98;233241;1202;24205;-74
2021/08/24 03:44:32;;;;;;;10.30;8.30;;;;;;;16.15;83.87;98635.67;233270;1202;24072;-74
2021/08/24 03:49:35;;;;;;;10.00;7.60;;;;;;;16.20;84.32;98640.73;233275;1202;24460;-74
2021/08/24 03:54:37;;;;;;;10.70;8.10;;;;;;;16.22;84.34;98644.52;233387;1197;24102;-74
2021/08/24 03:59:39;;;;;;;11.70;9.50;;;;;;;16.29;84.52;98645.30;233292;1202;24109;-73
2021/08/24 04:05:17;;;;;;;11.20;8.80;;;;;;;16.32;84.40;98646.96;233302;1200;24208;-74
2021/08/24 04:10:42;;;;;;;9.60;7.90;;;;;;;16.32;84.33;98649.98;233074;1203;24060;-74
2021/08/24 04:15:47;;;;;;;8.60;7.50;;;;;;;16.36;84.27;98649.58;233259;1202;24543;-73
2021/08/24 04:20:52;;;;;;;9.70;8.70;;;;;;;16.33;83.91;98657.19;233367;1202;24578;-74
2021/08/24 04:25:56;;;;;;;10.90;8.50;;;;;;;16.32;84.11;98660.42;233659;1202;24054;-75
2021/08/24 04:31:03;;;;;;;10.50;8.60;;;;;;;16.32;83.93;98671.92;233503;1200;24225;-74
2021/08/24 04:36:06;;;;;;;9.40;8.30;;;;;;;16.36;84.34;98674.54;233380;1202;24074;-74
2021/08/24 04:41:09;;;;;;;9.10;8.10;;;;;;;16.48;84.66;98685.33;233286;1202;24052;-75
2021/08/24 04:46:12;;;;;;;11.10;9.60;;;;;;;16.57;84.43;98690.53;233452;1201;24084;-74
2021/08/24 04:51:14;;;;;;;11.00;9.60;;;;;;;16.65;84.47;98695.21;233353;1203;24069;-74
2021/08/24 04:56:23;;;;;;;9.40;8.40;;;;;;;16.75;84.29;98697.50;233634;1202;25415;-72
2021/08/24 05:01:28;;;;;;;10.80;9.20;;;;;;;16.79;83.86;98699.56;233304;1206;22443;-75
2021/08/24 05:06:31;;;;;;;10.20;9.10;;;;;;;16.77;83.77;98703.23;233133;1205;22525;-75
2021/08/24 05:11:33;;;;;;;10.80;8.40;;;;;;;16.78;83.89;98700.87;233387;1200;24064;-74
2021/08/24 05:16:43;;;;;;;11.20;8.90;;;;;;;16.81;83.83;98698.81;233366;1204;24083;-74
2021/08/24 05:21:46;;;;;;;8.90;8.00;;;;;;;16.81;83.70;98701.52;233601;1196;25201;-75
2021/08/24 05:26:54;;;;;;;9.50;8.50;;;;;;;16.83;83.73;98701.57;233256;1195;24170;-74
2021/08/24 05:31:57;;;;;;;11.00;9.40;;;;;;;16.87;83.99;98707.92;233294;1200;24981;-75
2021/08/24 05:37:00;;;;;;;10.00;8.90;;;;;;;16.91;83.90;98709.55;233443;1202;22436;-74
2021/08/24 05:42:04;;;;;;;11.10;7.90;;;;;;;16.92;83.71;98711.54;233312;1202;24055;-75
2021/08/24 05:47:07;;;;;;;9.80;8.10;;;;;;;16.98;83.79;98713.11;233602;1205;22506;-72
2021/08/24 05:52:09;;;;;;;9.50;8.60;;;;;;;17.05;83.86;98720.08;233948;1202;24214;-73
2021/08/24 05:57:14;;;;;;;8.80;7.40;;;;;;;17.12;83.70;98724.42;233500;1202;22477;-70
2021/08/24 06:02:17;;;;;;;9.80;7.70;;;;;;;17.15;83.46;98724.19;233688;1201;24143;-72
2021/08/24 06:07:20;;;;;;;8.60;7.70;;;;;;;17.17;83.45;98731.95;233759;1201;22508;-72
2021/08/24 06:12:23;;;;;;;8.80;7.90;;;;;;;17.17;83.36;98742.55;234157;1201;24067;-72
2021/08/24 06:17:26;;;;;;;8.60;6.60;;;;;;;16.97;82.07;98751.64;235046;1202;22593;-72
2021/08/24 06:22:29;;;;;;;5.80;4.90;;;;;;;16.59;81.61;98752.55;233967;1206;24924;-71
2021/08/24 06:27:31;;;;;;;4.90;4.00;;;;;;;16.28;81.56;98763.73;234285;1202;22503;-70
2021/08/24 06:32:51;;;;;;;3.70;3.40;;;;;;;15.98;81.73;98772.83;233922;1201;24128;-71
2021/08/24 06:37:53;;;;;;;3.80;3.30;;;;;;;15.77;82.15;98785.30;235950;1201;25040;-71
2021/08/24 06:42:56;;;;;;;3.80;3.30;;;;;;;15.66;82.40;98793.11;234829;1201;22594;-70
2021/08/24 06:47:59;;;;;;;3.90;3.10;;;;;;;15.62;82.56;98800.55;233644;1202;24075;-72
2021/08/24 06:53:03;;;;;;;3.60;3.30;;;;;;;15.53;82.73;98807.20;234057;1201;22464;-71
2021/08/24 06:58:13;;;;;;;3.60;3.20;;;;;;;15.51;82.90;98809.05;234779;1201;24121;-71
2021/08/24 07:03:28;;;;;;;3.60;3.30;;;;;;;15.49;82.83;98813.38;233885;1200;22955;-70
2021/08/24 07:08:30;;;;;;;4.70;2.90;;;;;;;15.53;83.02;98814.50;233687;1201;24103;-71
2021/08/24 07:13:35;;;;;;;3.50;2.70;;;;;;;15.60;83.12;98825.40;233724;1201;24538;-70
2021/08/24 07:18:39;;;;;;;2.30;2.10;;;;;;;15.64;82.97;98824.33;233549;1202;25158;-72
2021/08/24 07:23:42;;;;;;;2.60;1.70;;;;;;;15.72;82.98;98827.38;233624;1202;25069;-72
2021/08/24 07:28:44;;;;;;;2.10;1.20;;;;;;;15.73;82.63;98831.02;233869;1205;22465;-72
2021/08/24 07:33:47;;;;;;;1.20;1.10;;;;;;;15.65;82.44;98840.16;233462;1200;22453;-70
2021/08/24 07:38:49;;;;;;;1.70;1.00;;;;;;;15.53;82.37;98853.00;233506;1201;25209;-72
2021/08/24 07:43:54;;;;;;;1.10;1.00;;;;;;;15.47;82.61;98862.54;233600;1200;25203;-71
2021/08/24 07:48:56;;;;;;;0.70;0.70;;;;;;;15.43;82.93;98867.77;233490;1200;24010;-72
2021/08/24 07:54:00;;;;;;;0.60;0.60;;;;;;;15.36;82.97;98874.35;234001;1201;24214;-72
2021/08/24 07:59:02;;;;;;;1.50;0.70;;;;;;;15.26;83.17;98880.77;233542;1203;24223;-71
2021/08/24 08:04:07;;;;;;;0.70;0.60;;;;;;;15.12;83.28;98885.44;233482;1203;22530;-70
2021/08/24 08:09:09;;;;;;;1.40;0.60;;;;;;;15.02;83.50;98898.63;233862;1206;24160;-71
2021/08/24 08:14:25;;;;;;;2.00;0.70;;;;;;;14.93;83.53;98903.70;233555;1201;22457;-71
2021/08/24 08:19:43;;;;;;;0.70;0.70;;;;;;;14.89;83.56;98911.90;233642;1202;22456;-71
2021/08/24 08:24:45;;;;;;;0.60;0.60;;;;;;;14.83;83.31;98919.45;233633;1201;22461;-70
2021/08/24 08:29:48;;;;;;;1.20;0.70;;;;;;;14.79;83.40;98923.20;233783;1202;22457;-71
2021/08/24 08:34:52;;;;;;;1.30;0.70;;;;;;;14.77;83.39;98929.11;233557;1199;22647;-72
2021/08/24 08:39:55;;;;;;;1.10;0.60;;;;;;;14.79;83.38;98938.77;233646;1208;24298;-73
2021/08/24 08:45:22;;;;;;;0.80;0.80;;;;;;;14.86;83.35;98946.39;233579;1203;24149;-69
2021/08/24 08:50:33;;;;;;;1.10;0.70;;;;;;;14.90;83.07;98956.48;233697;1202;24074;-70
2021/08/24 08:56:15;;;;;;;1.10;0.60;;;;;;;14.90;82.86;98968.04;233866;1198;22869;-72
2021/08/24 09:01:48;;;;;;;1.10;0.60;;;;;;;14.92;82.52;98971.37;233334;1201;24113;-70
2021/08/24 09:06:57;;;;;;;1.30;0.80;;;;;;;14.97;82.30;98979.16;233926;1201;24268;-73
2021/08/24 09:12:01;;;;;;;1.20;1.10;;;;;;;14.99;81.82;98988.02;233789;1200;22474;-73
2021/08/24 09:17:20;;;;;;;1.50;1.00;;;;;;;15.00;81.69;98998.41;233885;1206;24498;-71
2021/08/24 09:22:23;;;;;;;2.70;1.30;;;;;;;15.04;81.50;99007.50;233458;1206;24070;-72
2021/08/24 09:27:41;;;;;;;2.30;1.80;;;;;;;15.06;81.13;99015.43;233842;1201;24019;-71
2021/08/24 09:32:48;;;;;;;2.30;1.70;;;;;;;15.09;81.27;99018.11;234425;1200;22554;-71
2021/08/24 09:38:29;;;;;;;1.90;1.40;;;;;;;15.10;80.91;99020.73;233981;1195;24103;-70
2021/08/24 09:43:36;;;;;;;2.00;1.60;;;;;;;15.11;80.82;99023.08;233944;1207;26213;-70
2021/08/24 09:49:27;;;;;;;1.50;1.40;;;;;;;15.13;80.90;99026.92;233991;1202;24031;-70
2021/08/24 09:54:43;;;;;;;1.60;1.50;;;;;;;15.11;80.93;99028.63;233478;1201;24053;-70
2021/08/24 09:59:56;;;;;;;1.50;1.40;;;;;;;15.22;81.11;99034.54;233675;1201;22447;-71
2021/08/24 10:05:27;;;;;;;2.10;1.90;;;;;;;15.38;80.73;99033.52;234424;1202;24015;-70
2021/08/24 10:11:01;;;;;;;1.50;1.40;;;;;;;15.49;80.20;99040.27;234024;1201;24086;-70
2021/08/24 10:16:11;;;;;;;2.20;1.80;;;;;;;15.59;79.97;99049.81;238674;1201;27197;-70
2021/08/24 10:21:32;;;;;;;2.00;1.80;;;;;;;15.68;79.29;99054.58;233570;1201;24140;-71
2021/08/24 10:26:36;;;;;;;2.60;1.70;;;;;;;15.71;78.92;99061.06;233653;1201;22449;-72
2021/08/24 10:31:48;;;;;;;3.00;1.60;;;;;;;15.77;78.65;99067.88;233956;1200;22470;-71
2021/08/24 10:36:51;;;;;;;2.20;1.80;;;;;;;15.74;78.31;99071.20;234390;1196;22512;-71
2021/08/24 10:42:03;;;;;;;2.50;2.30;;;;;;;15.79;78.02;99075.22;234426;1202;24052;-71
2021/08/24 10:47:22;;;;;;;1.90;1.70;;;;;;;15.81;77.98;99073.45;234209;1194;24102;-71
2021/08/24 10:52:43;;;;;;;2.70;1.80;;;;;;;15.82;77.55;99085.48;233732;1201;24079;-71
2021/08/24 10:58:04;;;;;;;2.20;1.90;;;;;;;15.71;77.15;99099.31;233865;1201;25403;-69
2021/08/24 11:03:16;;;;;;;1.80;1.60;;;;;;;15.63;77.46;99096.79;233232;1201;22596;-72
2021/08/24 11:08:54;;;;;;;3.40;1.90;;;;;;;15.62;77.64;99114.09;233467;1201;22449;-72
2021/08/24 11:14:15;;;;;;;2.70;2.10;;;;;;;15.65;77.92;99118.70;233571;1201;22468;-72
2021/08/24 11:19:36;;;;;;;2.00;1.80;;;;;;;15.71;78.23;99128.26;233523;1202;22536;-72
2021/08/24 11:24:57;;;;;;;2.50;2.10;;;;;;;15.64;78.33;99135.63;233414;1201;22536;-72
2021/08/24 11:30:09;;;;;;;2.90;2.50;;;;;;;15.52;78.92;99136.67;233631;1201;22993;-70
2021/08/24 11:35:21;;;;;;;2.80;2.10;;;;;;;15.46;79.61;99142.88;234376;1202;24212;-71
2021/08/24 11:40:54;;;;;;;3.20;2.90;;;;;;;15.44;80.13;99152.88;234095;1202;25212;-71
2021/08/24 11:46:01;;;;;;;3.50;2.60;;;;;;;15.47;80.46;99157.16;234063;1201;25383;-71
2021/08/24 11:51:12;;;;;;;3.20;2.90;;;;;;;15.37;80.72;99161.13;234042;1201;25254;-71
2021/08/24 11:56:37;;;;;;;3.30;3.00;;;;;;;15.37;81.33;99167.45;233903;1201;24209;-71
2021/08/24 12:01:45;;;;;;;3.20;2.70;;;;;;;15.39;81.47;99178.55;233613;1201;22464;-71
2021/08/24 12:06:56;;;;;;;3.20;2.90;;;;;;;15.38;81.54;99189.84;234069;1202;25071;-72
2021/08/24 12:11:59;;;;;;;3.80;3.10;;;;;;;15.26;81.52;99200.04;233875;1201;22461;-71
2021/08/24 12:17:05;;;;;;;3.80;3.50;;;;;;;15.13;81.83;99202.08;234548;1203;24089;-71
2021/08/24 12:22:13;;;;;;;3.80;2.80;;;;;;;15.08;82.27;99213.39;234719;1201;22671;-72
2021/08/24 12:27:15;;;;;;;3.90;3.50;;;;;;;15.08;82.71;99215.31;234461;1201;22480;-71
2021/08/24 12:32:21;;;;;;;3.80;3.30;;;;;;;15.08;82.94;99222.42;234259;1195;22500;-70
2021/08/24 12:37:23;;;;;;;4.60;3.20;;;;;;;15.09;83.11;99234.50;234091;1201;24620;-70
2021/08/24 12:42:32;;;;;;;4.70;3.30;;;;;;;15.08;83.17;99235.55;234103;1201;22445;-72
2021/08/24 12:47:44;;;;;;;3.50;3.20;;;;;;;15.05;83.22;99245.39;234425;1201;22436;-71
2021/08/24 12:52:49;;;;;;;4.80;3.30;;;;;;;15.01;83.46;99243.39;234246;1205;22522;-70
2021/08/24 12:58:20;;;;;;;3.20;2.90;;;;;;;15.02;83.55;99249.66;234311;1201;24115;-70
2021/08/24 13:03:26;;;;;;;3.60;3.20;;;;;;;15.10;83.71;99252.98;234054;1201;22605;-70
2021/08/24 13:08:30;;;;;;;3.70;3.40;;;;;;;15.22;83.76;99259.23;233974;1201;22516;-70
2021/08/24 13:14:05;;;;;;;4.50;3.10;;;;;;;15.36;83.59;99254.30;233809;1195;22853;-68
2021/08/24 13:19:20;;;;;;;3.70;3.40;;;;;;;15.39;83.42;99259.85;237402;1201;22460;-69
2021/08/24 13:24:30;;;;;;;3.90;3.30;;;;;;;15.36;83.35;99263.38;231643;1201;22650;-71
2021/08/24 13:29:40;;;;;;;4.30;3.90;;;;;;;15.37;83.50;99266.36;233953;1202;22470;-71
2021/08/24 13:34:56;;;;;;;4.30;3.90;;;;;;;15.33;83.22;99269.18;234347;1201;22591;-71
2021/08/24 13:40:10;;;;;;;4.60;4.20;;;;;;;15.24;83.06;99276.98;234486;1201;24153;-71
2021/08/24 13:45:35;;;;;;;5.10;4.70;;;;;;;15.20;83.02;99278.49;234289;1201;23048;-71
2021/08/24 13:50:41;;;;;;;5.80;5.00;;;;;;;15.26;83.16;99282.84;234077;1202;22487;-71
2021/08/24 13:55:57;;;;;;;7.60;5.70;;;;;;;15.39;83.09;99288.90;234707;1202;22626;-71
2021/08/24 14:01:13;;;;;;;5.80;5.30;;;;;;;15.46;82.50;99294.81;234421;1201;22483;-72
2021/08/24 14:06:30;;;;;;;5.40;4.90;;;;;;;15.46;82.15;99293.20;234110;1201;22495;-72
2021/08/24 14:11:33;;;;;;;4.60;4.20;;;;;;;15.50;81.95;99304.34;235096;1201;25324;-72
2021/08/24 14:16:37;;;;;;;8.00;4.20;;;;;;;15.57;81.38;99310.75;234894;1201;24063;-72
2021/08/24 14:21:41;;;;;;;4.80;4.30;;;;;;;15.60;81.14;99316.98;233597;1201;24162;-72
2021/08/24 14:26:48;;;;;;;7.00;4.10;;;;;;;15.55;80.59;99316.96;233553;1193;22925;-72
2021/08/24 14:31:55;;;;;;;4.80;3.60;;;;;;;15.50;80.61;99322.70;233863;1201;24089;-72
2021/08/24 14:37:21;;;;;;;4.40;3.40;;;;;;;15.41;80.18;99318.64;233811;1201;24010;-72
2021/08/24 14:42:43;;;;;;;5.30;3.90;;;;;;;15.23;79.72;99319.55;234215;1201;24140;-74
2021/08/24 14:47:51;;;;;;;3.60;3.20;;;;;;;14.95;79.73;99332.05;233605;1195;24458;-71
2021/08/24 14:52:56;;;;;;;5.20;3.20;;;;;;;14.75;80.06;99334.70;233739;1195;25083;-74
2021/08/24 14:58:21;;;;;;;7.50;3.50;;;;;;;14.65;80.37;99335.81;233623;1201;24044;-73
2021/08/24 15:03:29;;;;;;;;;;;;;;;14.54;80.59;99338.38;233485;1201;22434;-70
2021/08/24 15:08:43;;;;;;;6.20;4.00;;;;;;;14.47;80.76;99341.45;233757;1202;24088;-72
2021/08/24 15:14:18;;;;;;;4.40;3.70;;;;;;;14.45;81.13;99344.77;233419;1201;24191;-72
2021/08/24 15:19:25;;;;;;;5.70;4.10;;;;;;;14.43;80.96;99343.99;233622;1201;24524;-72
2021/08/24 15:24:35;;;;;;;3.50;3.20;;;;;;;14.34;80.60;99346.05;233538;1201;25209;-71
2021/08/24 15:29:40;;;;;;;3.40;2.90;;;;;;;14.27;80.59;99347.33;233656;1193;24086;-71
2021/08/24 15:34:51;;;;;;;3.70;3.00;;;;;;;14.27;80.80;99342.15;233566;1201;22454;-71
2021/08/24 15:39:53;;;;;;;3.40;2.90;;;;;;;14.33;80.70;99348.08;233559;1201;24076;-71
2021/08/24 15:44:58;;;;;;;5.40;3.10;;;;;;;14.42;80.94;99350.91;233344;1202;23976;-73
2021/08/24 15:50:02;;;;;;;3.30;2.70;;;;;;;14.59;80.95;99353.77;233404;1201;22572;-71
2021/08/24 15:55:35;;;;;;;3.70;3.20;;;;;;;14.67;80.76;99351.26;233549;1201;22520;-72
2021/08/24 16:00:55;;;;;;;6.40;3.90;;;;;;;14.71;80.95;99350.42;233928;1195;24561;-72
2021/08/24 16:05:57;;;;;;;4.40;3.40;;;;;;;14.71;80.68;99356.13;234057;1203;25086;-71
2021/08/24 16:11:00;;;;;;;4.90;2.70;;;;;;;14.67;80.37;99361.33;233718;1201;24508;-71
2021/08/24 16:16:07;;;;;;;5.10;3.10;;;;;;;14.65;80.25;99358.63;233635;1201;25264;-72
2021/08/24 16:21:25;;;;;;;3.20;2.70;;;;;;;14.62;80.20;99349.89;233505;1194;25970;-72
2021/08/24 16:26:28;;;;;;;3.20;2.20;;;;;;;14.59;79.98;99351.96;233605;1201;22470;-72
2021/08/24 16:31:46;;;;;;;4.10;2.30;;;;;;;14.55;79.69;99356.91;233385;1202;24492;-70
2021/08/24 16:36:48;;;;;;;5.70;3.10;;;;;;;14.50;79.55;99358.79;233566;1201;25368;-71
2021/08/24 16:42:10;;;;;;;4.00;2.40;;;;;;;14.48;79.43;99364.59;233407;1209;22449;-70
2021/08/24 16:47:37;;;;;;;;;;;;;;;14.45;79.33;99365.83;233918;1203;25097;-70
2021/08/24 16:53:14;;;;;;;3.90;2.10;;;;;;;14.41;79.39;99365.70;233578;1201;25022;-72
2021/08/24 16:58:34;;;;;;;3.20;1.70;;;;;;;14.42;79.46;99368.16;233479;1201;24729;-71
2021/08/24 17:03:36;;;;;;;4.70;2.00;;;;;;;14.43;79.52;99368.51;233537;1201;24068;-71
2021/08/24 17:08:40;;;;;;;4.30;2.50;;;;;;;14.46;79.75;99367.22;233565;1201;24225;-71
2021/08/24 17:13:43;;;;;;;5.40;2.10;;;;;;;14.49;80.21;99365.54;233508;1201;24081;-72
2021/08/24 17:18:47;;;;;;;3.50;2.60;;;;;;;14.48;79.88;99365.02;233507;1201;24090;-71
2021/08/24 17:23:50;;;;;;;4.10;2.80;;;;;;;14.46;79.81;99368.85;233637;1201;24106;-72
2021/08/24 17:28:55;;;;;;;4.10;2.90;;;;;;;14.43;80.31;99377.35;233595;1194;24064;-72
2021/08/24 17:34:13;;;;;;;4.00;3.00;;;;;;;14.38;80.22;99387.09;233555;1201;22465;-72
2021/08/24 17:39:17;;;;;;;4.60;2.50;;;;;;;14.31;80.29;99384.42;233708;1201;25328;-70
2021/08/24 17:44:21;;;;;;;4.20;3.00;;;;;;;14.23;80.45;99385.40;233428;1202;22486;-72
2021/08/24 17:49:26;;;;;;;6.90;3.30;;;;;;;14.11;80.29;99388.77;233499;1195;24087;-72
2021/08/24 17:54:29;;;;;;;5.40;3.90;;;;;;;13.94;80.31;99396.61;233685;1195;25093;-71
2021/08/24 17:59:34;;;;;;;4.40;3.30;;;;;;;13.73;80.32;99400.98;233448;1201;22457;-72
2021/08/24 18:04:37;;;;;;;5.10;3.20;;;;;;;13.56;80.55;99403.46;233400;1201;24059;-72
2021/08/24 18:09:40;;;;;;;5.10;3.30;;;;;;;13.38;80.78;99406.19;233621;1201;24080;-72
2021/08/24 18:14:43;;;;;;;5.70;3.80;;;;;;;13.25;81.38;99408.67;233576;1201;24863;-73
2021/08/24 18:19:46;;;;;;;6.30;3.50;;;;;;;13.17;82.05;99408.66;233622;1195;22459;-72
2021/08/24 18:24:48;;;;;;;4.40;3.30;;;;;;;13.07;82.35;99405.52;233489;1195;24552;-72
2021/08/24 18:29:50;;;;;;;6.60;3.50;;;;;;;13.00;82.61;99407.32;233556;1202;24275;-71
2021/08/24 18:35:06;;;;;;;5.90;3.90;;;;;;;12.96;82.99;99405.55;233650;1201;22460;-70
2021/08/24 18:40:13;;;;;;;6.00;4.70;;;;;;;12.96;83.53;99405.16;233744;1201;22508;-71
2021/08/24 18:45:21;;;;;;;6.50;3.50;;;;;;;12.92;83.55;99406.35;233570;1201;25577;-72
2021/08/24 18:50:25;;;;;;;4.20;3.00;;;;;;;12.82;83.24;99402.48;233640;1202;25139;-72
2021/08/24 18:55:30;;;;;;;5.00;3.20;;;;;;;12.81;83.81;99404.22;233581;1202;24160;-71
2021/08/24 19:00:37;;;;;;;7.60;5.10;;;;;;;12.86;83.86;99397.17;233438;1202;24158;-71
2021/08/24 19:05:41;;;;;;;7.60;5.10;;;;;;;12.92;83.97;99399.09;233275;1202;22568;-70
2021/08/24 19:10:44;;;;;;;8.30;5.40;;;;;;;13.00;84.01;99402.65;233758;1201;25413;-71
2021/08/24 19:15:49;;;;;;;8.80;6.10;;;;;;;13.09;84.15;99397.38;233702;1207;24027;-71
2021/08/24 19:20:55;;;;;;;8.80;6.30;;;;;;;13.18;84.13;99394.11;233845;1201;22438;-72
2021/08/24 19:25:58;;;;;;;7.30;5.30;;;;;;;13.22;84.00;99398.42;233404;1202;22548;-71
2021/08/24 19:31:01;;;;;;;8.50;4.90;;;;;;;13.19;83.65;99397.61;233748;1202;24170;-72
2021/08/24 19:36:05;;;;;;;7.70;5.20;;;;;;;13.14;83.84;99398.54;233499;1202;22909;-72
2021/08/24 19:41:08;;;;;;;6.00;4.70;;;;;;;13.10;84.04;99397.55;233815;1194;24182;-72
2021/08/24 19:46:11;;;;;;;8.10;4.00;;;;;;;13.03;83.99;99394.66;233786;1201;24102;-72
2021/08/24 19:51:17;;;;;;;7.10;4.10;;;;;;;12.95;84.06;99394.42;233363;1195;24074;-72
2021/08/24 19:56:21;;;;;;;4.20;3.30;;;;;;;12.86;84.16;99395.19;233384;1196;22981;-72
2021/08/24 20:01:25;;;;;;;8.30;3.70;;;;;;;12.75;83.95;99395.21;233465;1202;25379;-72
2021/08/24 20:06:28;;;;;;;6.60;3.50;;;;;;;12.65;84.01;99395.80;233704;1200;24112;-72
2021/08/24 20:11:35;;;;;;;5.80;3.60;;;;;;;12.50;83.87;99396.89;233604;1200;24183;-72
2021/08/24 20:16:43;;;;;;;5.30;3.10;;;;;;;12.35;83.94;99396.23;233380;1202;24068;-73
2021/08/24 20:21:45;;;;;;;7.70;3.00;;;;;;;12.24;83.87;99399.52;233577;1202;22453;-73
2021/08/24 20:26:49;;;;;;;5.30;3.40;;;;;;;12.13;83.85;99395.77;233286;1196;24078;-72
2021/08/24 20:31:51;;;;;;;5.80;3.30;;;;;;;12.03;84.12;99391.88;233436;1204;25197;-71
2021/08/24 20:36:54;;;;;;;4.90;3.10;;;;;;;11.94;84.31;99394.41;233439;1202;24128;-71
2021/08/24 20:41:59;;;;;;;3.80;2.70;;;;;;;11.84;84.26;99386.38;233444;1202;25174;-73
2021/08/24 20:47:11;;;;;;;5.70;3.30;;;;;;;11.76;84.27;99384.46;233468;1202;22448;-72
2021/08/24 20:52:23;;;;;;;4.50;3.20;;;;;;;11.66;84.35;99382.06;233418;1202;24872;-72
2021/08/24 20:57:25;;;;;;;7.10;3.10;;;;;;;11.59;84.53;99380.55;233654;1202;25338;-71
2021/08/24 21:02:28;;;;;;;6.90;3.40;;;;;;;11.54;84.66;99378.02;233538;1201;22463;-72
2021/08/24 21:07:31;;;;;;;6.70;3.80;;;;;;;11.46;84.39;99376.15;233492;1202;26361;-72
2021/08/24 21:12:34;;;;;;;5.50;3.60;;;;;;;11.38;84.74;99376.52;233449;1201;24140;-71
2021/08/24 21:17:37;;;;;;;8.00;3.50;;;;;;;11.32;84.74;99376.18;233497;1205;24956;-71
2021/08/24 21:22:40;;;;;;;6.70;3.80;;;;;;;11.31;84.83;99373.71;233708;1196;24227;-72
2021/08/24 21:27:43;;;;;;;6.90;3.90;;;;;;;11.34;85.03;99371.34;233506;1202;24083;-72
2021/08/24 21:32:53;;;;;;;;;;;;;;;11.40;85.34;99369.16;233471;1201;25100;-72
2021/08/24 21:37:56;;;;;;;4.70;2.80;;;;;;;11.46;85.29;99372.23;233557;1205;24175;-72
2021/08/24 21:42:58;;;;;;;5.80;3.40;;;;;;;11.51;85.30;99369.77;233425;1202;22481;-70
2021/08/24 21:48:01;;;;;;;7.30;3.30;;;;;;;11.55;84.99;99367.23;233518;1203;22442;-71
2021/08/24 21:53:08;;;;;;;5.70;3.50;;;;;;;11.56;84.98;99367.60;233449;1206;22558;-72
2021/08/24 21:58:12;;;;;;;4.10;3.30;;;;;;;11.55;84.88;99361.86;233393;1200;22368;-71
2021/08/24 22:03:14;;;;;;;5.80;3.40;;;;;;;11.58;84.91;99362.76;233456;1201;25143;-71
2021/08/24 22:08:24;;;;;;;6.80;3.30;;;;;;;11.61;84.81;99366.11;233332;1200;25290;-71
2021/08/24 22:13:27;;;;;;;3.80;3.00;;;;;;;11.61;84.62;99362.40;233382;1201;22476;-69
2021/08/24 22:18:30;;;;;;;6.70;3.70;;;;;;;11.64;84.68;99359.69;233340;1201;24195;-72
2021/08/24 22:23:36;;;;;;;6.80;3.80;;;;;;;11.66;84.58;99357.75;233442;1201;24071;-70
2021/08/24 22:28:43;;;;;;;5.40;3.50;;;;;;;11.68;84.44;99356.39;233406;1203;22815;-72
2021/08/24 22:33:46;;;;;;;7.10;3.20;;;;;;;11.68;84.25;99353.70;233429;1201;24020;-72
2021/08/24 22:38:52;;;;;;;5.20;3.00;;;;;;;11.70;84.06;99351.75;233650;1202;22464;-72
2021/08/24 22:44:10;;;;;;;7.10;3.90;;;;;;;11.75;84.14;99351.02;233525;1196;24208;-71
2021/08/24 22:49:20;;;;;;;5.40;3.50;;;;;;;11.81;84.02;99354.08;233308;1202;22575;-72
2021/08/24 22:54:23;;;;;;;6.50;3.20;;;;;;;11.84;84.19;99355.88;233199;1195;24096;-69
2021/08/24 22:59:28;;;;;;;5.30;3.50;;;;;;;11.90;84.06;99357.22;233297;1201;24067;-72
2021/08/24 23:04:30;;;;;;;4.80;2.90;;;;;;;11.92;83.84;99352.38;233381;1205;22454;-72
2021/08/24 23:09:38;;;;;;;6.30;3.50;;;;;;;11.97;83.78;99350.70;233420;1201;24100;-72
2021/08/24 23:14:40;;;;;;;6.60;3.80;;;;;;;12.00;83.82;99341.38;233446;1202;24067;-73
2021/08/24 23:19:56;;;;;;;5.90;3.20;;;;;;;11.98;83.67;99346.48;233468;1195;24061;-72
2021/08/24 23:25:16;;;;;;;7.40;3.40;;;;;;;11.99;83.72;99352.29;233520;1208;22503;-73
2021/08/24 23:30:26;;;;;;;7.20;2.90;;;;;;;12.00;83.84;99352.20;233265;1201;22442;-72
2021/08/24 23:35:29;;;;;;;5.40;3.30;;;;;;;12.03;83.68;99348.23;233444;1205;26093;-70
2021/08/24 23:40:31;;;;;;;6.20;3.60;;;;;;;12.05;83.75;99342.98;233294;1202;24057;-72
2021/08/24 23:45:35;;;;;;;5.00;3.10;;;;;;;12.07;83.96;99337.22;233419;1205;24029;-72
2021/08/24 23:50:38;;;;;;;4.70;3.10;;;;;;;12.08;83.69;99333.71;233329;1200;22495;-72
2021/08/24 23:55:47;;;;;;;6.50;3.80;;;;;;;12.11;83.78;99323.74;233512;1206;25212;-72
